Time;durP1;ratioP1;P1;durP2;ratioP2;P2;SDS_P1;SDS_P2;PMS_P1;PMS_P2;Temp;Humidity;BMP_temperature;BMP_pressure;BME280_temperature;BME280_humidity;BME280_pressure;Samples;Min_cycle;Max_cycle;Signal;HPM_P1;HPM_P2
2021/06/20 00:00:52;;;;;;;10.55;6.40;;;;;;;;;;1908244;67;20102;-55
2021/06/20 00:03:18;;;;;;;9.43;6.05;;;;;;;;;;1909279;51;20083;-58
2021/06/20 00:05:52;;;;;;;9.07;5.50;;;;;;;;;;1907939;67;20079;-55
2021/06/20 00:08:18;;;;;;;9.48;5.75;;;;;;;;;;1908440;67;20098;-55
2021/06/20 00:10:44;;;;;;;10.25;5.68;;;;;;;;;;1908249;67;20415;-55
2021/06/20 00:13:10;;;;;;;8.77;5.63;;;;;;;;;;1907498;67;20131;-56
2021/06/20 00:15:40;;;;;;;11.23;6.18;;;;;;;;;;1908583;67;20091;-54
2021/06/20 00:18:06;;;;;;;10.15;5.40;;;;;;;;;;1907789;67;20095;-55
2021/06/20 00:20:34;;;;;;;10.70;5.82;;;;;;;;;;1908562;67;20582;-54
2021/06/20 00:23:00;;;;;;;9.98;5.53;;;;;;;;;;1908763;67;20479;-54
2021/06/20 00:25:27;;;;;;;12.75;6.00;;;;;;;;;;1908739;67;20156;-54
2021/06/20 00:27:54;;;;;;;6.90;5.45;;;;;;;;;;1909077;67;20141;-53
2021/06/20 00:30:22;;;;;;;10.13;5.85;;;;;;;;;;1907334;67;20091;-54
2021/06/20 00:32:49;;;;;;;13.73;5.90;;;;;;;;;;1908671;67;20166;-55
2021/06/20 00:35:16;;;;;;;11.27;5.68;;;;;;;;;;1907785;67;20086;-54
2021/06/20 00:37:42;;;;;;;7.70;5.50;;;;;;;;;;1909136;67;20084;-55
2021/06/20 00:40:08;;;;;;;13.45;5.85;;;;;;;;;;1908420;67;20269;-54
2021/06/20 00:42:34;;;;;;;9.70;5.95;;;;;;;;;;1908164;67;20154;-54
2021/06/20 00:44:59;;;;;;;9.02;6.68;;;;;;;;;;1908041;67;20080;-54
2021/06/20 00:47:24;;;;;;;11.18;5.85;;;;;;;;;;1908765;67;20098;-56
2021/06/20 00:49:50;;;;;;;10.00;7.10;;;;;;;;;;1908024;67;20087;-54
2021/06/20 00:52:18;;;;;;;11.50;6.82;;;;;;;;;;1908442;67;20394;-55
2021/06/20 00:54:47;;;;;;;10.43;6.43;;;;;;;;;;1908323;67;20148;-62
2021/06/20 00:57:18;;;;;;;10.70;6.22;;;;;;;;;;1907618;67;20087;-63
2021/06/20 00:59:44;;;;;;;11.80;6.25;;;;;;;;;;1908700;56;20145;-62
2021/06/20 01:02:12;;;;;;;9.70;6.97;;;;;;;;;;1908703;67;20084;-62
2021/06/20 01:04:38;;;;;;;8.80;6.47;;;;;;;;;;1908359;67;21139;-61
2021/06/20 01:07:04;;;;;;;9.65;5.50;;;;;;;;;;1909156;67;20084;-62
2021/06/20 01:09:30;;;;;;;10.82;5.82;;;;;;;;;;1908727;67;20449;-61
2021/06/20 01:11:56;;;;;;;7.93;5.93;;;;;;;;;;1908536;67;20099;-63
2021/06/20 01:14:22;;;;;;;9.55;6.00;;;;;;;;;;1908183;67;20643;-63
2021/06/20 01:16:50;;;;;;;8.95;5.93;;;;;;;;;;1908392;67;20094;-62
2021/06/20 01:19:17;;;;;;;10.82;6.10;;;;;;;;;;1908619;67;20092;-62
2021/06/20 01:21:43;;;;;;;8.35;6.30;;;;;;;;;;1908174;67;20091;-62
2021/06/20 01:24:09;;;;;;;8.75;5.82;;;;;;;;;;1908261;67;20091;-55
2021/06/20 01:26:35;;;;;;;8.05;6.05;;;;;;;;;;1908272;67;20462;-55
2021/06/20 01:29:05;;;;;;;6.13;5.18;;;;;;;;;;1910165;67;20152;-55
2021/06/20 01:31:35;;;;;;;9.63;5.85;;;;;;;;;;1911469;67;20087;-55
2021/06/20 01:34:01;;;;;;;10.90;6.20;;;;;;;;;;1909032;67;20091;-55
2021/06/20 01:36:27;;;;;;;10.27;5.85;;;;;;;;;;1908056;67;20095;-55
2021/06/20 01:38:52;;;;;;;9.32;6.28;;;;;;;;;;1908004;67;20076;-55
2021/06/20 01:41:18;;;;;;;11.00;5.95;;;;;;;;;;1908878;67;20090;-56
2021/06/20 01:43:44;;;;;;;9.18;6.35;;;;;;;;;;1908902;67;20866;-55
2021/06/20 01:46:09;;;;;;;8.15;6.35;;;;;;;;;;1908718;59;20083;-55
2021/06/20 01:48:36;;;;;;;10.30;5.90;;;;;;;;;;1909355;67;20128;-52
2021/06/20 01:51:05;;;;;;;9.10;6.00;;;;;;;;;;1907857;67;20515;-54
2021/06/20 01:53:31;;;;;;;8.25;5.95;;;;;;;;;;1908576;67;20554;-55
2021/06/20 01:55:56;;;;;;;9.55;6.25;;;;;;;;;;1908319;67;20137;-55
2021/06/20 01:58:22;;;;;;;13.90;6.65;;;;;;;;;;1908167;67;20373;-55
2021/06/20 02:00:50;;;;;;;9.63;5.90;;;;;;;;;;1908597;67;20503;-54
2021/06/20 02:03:19;;;;;;;7.57;6.57;;;;;;;;;;1909085;67;20404;-55
2021/06/20 02:05:47;;;;;;;10.95;7.05;;;;;;;;;;1910103;67;20091;-55
2021/06/20 02:08:17;;;;;;;11.40;6.55;;;;;;;;;;1908982;67;20409;-55
2021/06/20 02:10:43;;;;;;;10.35;6.70;;;;;;;;;;1909406;67;20086;-53
2021/06/20 02:13:09;;;;;;;12.75;7.40;;;;;;;;;;1908388;67;20088;-55
2021/06/20 02:15:34;;;;;;;9.98;6.90;;;;;;;;;;1909158;67;20518;-54
2021/06/20 02:18:00;;;;;;;11.75;7.35;;;;;;;;;;1909199;67;20144;-54
2021/06/20 02:20:25;;;;;;;13.38;6.47;;;;;;;;;;1906706;67;20514;-56
2021/06/20 02:22:52;;;;;;;12.00;6.82;;;;;;;;;;1909408;67;20084;-55
2021/06/20 02:25:19;;;;;;;13.30;6.95;;;;;;;;;;1908743;67;20187;-56
2021/06/20 02:27:47;;;;;;;11.18;6.43;;;;;;;;;;1908122;67;20092;-56
2021/06/20 02:30:14;;;;;;;10.85;6.20;;;;;;;;;;1909102;67;20747;-54
2021/06/20 02:32:40;;;;;;;12.40;6.75;;;;;;;;;;1908364;67;20088;-56
2021/06/20 02:35:08;;;;;;;12.43;6.78;;;;;;;;;;1909279;67;20092;-54
2021/06/20 02:37:34;;;;;;;10.27;6.45;;;;;;;;;;1909300;67;20103;-55
2021/06/20 02:40:00;;;;;;;8.90;5.63;;;;;;;;;;1908197;67;20435;-55
2021/06/20 02:42:25;;;;;;;10.02;6.30;;;;;;;;;;1908087;67;20430;-56
2021/06/20 02:44:51;;;;;;;8.00;6.35;;;;;;;;;;1908863;67;20092;-54
2021/06/20 02:47:17;;;;;;;7.82;6.05;;;;;;;;;;1909050;67;20145;-57
2021/06/20 02:49:43;;;;;;;10.07;6.00;;;;;;;;;;1908306;67;20080;-56
2021/06/20 02:52:11;;;;;;;10.80;6.03;;;;;;;;;;1908269;67;20131;-56
2021/06/20 02:54:49;;;;;;;11.13;6.10;;;;;;;;;;1908767;67;20503;-56
2021/06/20 02:57:15;;;;;;;12.85;6.60;;;;;;;;;;1908994;67;20079;-56
2021/06/20 02:59:40;;;;;;;8.98;5.95;;;;;;;;;;1908202;67;20084;-53
2021/06/20 03:02:06;;;;;;;10.40;5.63;;;;;;;;;;1907741;67;20540;-56
2021/06/20 03:04:31;;;;;;;8.68;6.20;;;;;;;;;;1908464;67;20165;-54
2021/06/20 03:06:57;;;;;;;8.07;5.47;;;;;;;;;;1908688;67;20084;-56
2021/06/20 03:09:22;;;;;;;8.15;5.88;;;;;;;;;;1908664;67;20095;-55
2021/06/20 03:11:48;;;;;;;7.85;5.50;;;;;;;;;;1908451;67;20076;-53
2021/06/20 03:14:14;;;;;;;9.20;5.53;;;;;;;;;;1908146;67;20096;-56
2021/06/20 03:16:41;;;;;;;8.32;5.47;;;;;;;;;;1907949;67;20143;-54
2021/06/20 03:19:07;;;;;;;7.53;5.53;;;;;;;;;;1909075;67;20095;-55
2021/06/20 03:21:33;;;;;;;7.03;5.32;;;;;;;;;;1908759;67;20103;-54
2021/06/20 03:23:59;;;;;;;7.40;4.97;;;;;;;;;;1908337;67;20122;-54
2021/06/20 03:26:25;;;;;;;8.07;5.45;;;;;;;;;;1908222;67;20088;-56
2021/06/20 03:28:50;;;;;;;10.70;5.50;;;;;;;;;;1907547;67;20091;-56
2021/06/20 03:31:18;;;;;;;8.82;5.35;;;;;;;;;;1909274;67;20084;-56
2021/06/20 03:33:45;;;;;;;7.10;5.20;;;;;;;;;;1908520;67;20090;-55
2021/06/20 03:36:10;;;;;;;10.60;5.70;;;;;;;;;;1908739;67;20098;-55
2021/06/20 03:38:36;;;;;;;11.60;5.82;;;;;;;;;;1908319;67;20091;-54
2021/06/20 03:41:02;;;;;;;9.88;5.80;;;;;;;;;;1908957;67;20132;-54
2021/06/20 03:43:27;;;;;;;8.27;5.43;;;;;;;;;;1908466;67;20224;-55
2021/06/20 03:45:53;;;;;;;7.63;5.07;;;;;;;;;;1908201;67;20174;-55
2021/06/20 03:48:18;;;;;;;8.27;5.20;;;;;;;;;;1908901;67;20391;-55
2021/06/20 03:50:44;;;;;;;8.63;5.20;;;;;;;;;;1909179;67;20133;-56
2021/06/20 03:53:11;;;;;;;7.15;5.40;;;;;;;;;;1908105;67;20087;-54
2021/06/20 03:55:37;;;;;;;7.88;5.20;;;;;;;;;;1908077;67;20091;-56
2021/06/20 03:58:06;;;;;;;11.25;5.22;;;;;;;;;;1908607;67;20395;-56
2021/06/20 04:00:32;;;;;;;7.25;5.20;;;;;;;;;;1908990;67;20106;-56
2021/06/20 04:02:58;;;;;;;9.65;5.20;;;;;;;;;;1907249;67;20625;-56
2021/06/20 04:05:23;;;;;;;6.13;4.70;;;;;;;;;;1907939;67;20139;-58
2021/06/20 04:07:49;;;;;;;12.88;4.60;;;;;;;;;;1908856;67;20084;-55
2021/06/20 04:10:14;;;;;;;6.63;5.07;;;;;;;;;;1908002;67;20094;-56
2021/06/20 04:12:40;;;;;;;9.95;4.80;;;;;;;;;;1908782;67;20087;-57
2021/06/20 04:15:06;;;;;;;9.32;5.20;;;;;;;;;;1908536;67;20571;-56
2021/06/20 04:17:34;;;;;;;6.30;5.10;;;;;;;;;;1907882;67;20210;-55
2021/06/20 04:20:00;;;;;;;7.10;4.95;;;;;;;;;;1909347;67;20139;-56
2021/06/20 04:22:26;;;;;;;12.77;5.25;;;;;;;;;;1908274;67;20400;-55
2021/06/20 04:24:51;;;;;;;7.50;4.90;;;;;;;;;;1908777;67;20079;-54
2021/06/20 04:27:17;;;;;;;10.50;5.38;;;;;;;;;;1908817;67;20178;-54
2021/06/20 04:29:42;;;;;;;13.35;5.30;;;;;;;;;;1908943;67;20493;-54
2021/06/20 04:32:08;;;;;;;7.72;5.28;;;;;;;;;;1908790;67;20099;-54
2021/06/20 04:34:33;;;;;;;7.93;4.57;;;;;;;;;;1909249;67;20087;-55
2021/06/20 04:36:59;;;;;;;7.65;5.20;;;;;;;;;;1907643;67;20092;-54
2021/06/20 04:39:24;;;;;;;8.80;5.25;;;;;;;;;;1908478;67;20083;-55
2021/06/20 04:41:51;;;;;;;8.05;4.78;;;;;;;;;;1908499;67;20087;-54
2021/06/20 04:47:02;;;;;;;7.95;5.05;;;;;;;;;;1909119;59;20115;-54
2021/06/20 04:49:28;;;;;;;8.55;5.50;;;;;;;;;;1907562;67;20099;-56
2021/06/20 04:51:53;;;;;;;7.45;5.38;;;;;;;;;;1909321;67;20102;-54
2021/06/20 04:54:19;;;;;;;8.25;5.50;;;;;;;;;;1907871;67;20080;-55
2021/06/20 04:56:44;;;;;;;7.72;5.30;;;;;;;;;;1908874;67;20365;-56
2021/06/20 04:59:10;;;;;;;7.72;5.82;;;;;;;;;;1907967;67;20091;-54
2021/06/20 05:01:38;;;;;;;10.13;6.25;;;;;;;;;;1908221;67;20083;-55
2021/06/20 05:04:05;;;;;;;9.73;5.75;;;;;;;;;;1908920;67;20113;-55
2021/06/20 05:06:30;;;;;;;9.32;5.97;;;;;;;;;;1909504;67;20447;-54
2021/06/20 05:08:55;;;;;;;9.57;5.47;;;;;;;;;;1909385;67;20098;-55
2021/06/20 05:11:21;;;;;;;7.20;5.65;;;;;;;;;;1909331;67;20144;-53
2021/06/20 05:13:47;;;;;;;10.45;6.32;;;;;;;;;;1909077;67;20091;-54
2021/06/20 05:16:12;;;;;;;11.15;7.00;;;;;;;;;;1908814;67;20088;-54
2021/06/20 05:18:38;;;;;;;11.18;6.60;;;;;;;;;;1909054;67;20083;-53
2021/06/20 05:21:04;;;;;;;14.82;6.97;;;;;;;;;;1908890;67;20291;-54
2021/06/20 05:23:30;;;;;;;9.90;7.03;;;;;;;;;;1909063;67;20091;-54
2021/06/20 05:25:56;;;;;;;10.93;7.50;;;;;;;;;;1908495;67;20133;-54
2021/06/20 05:28:21;;;;;;;11.35;6.70;;;;;;;;;;1908939;67;20084;-53
2021/06/20 05:30:47;;;;;;;9.50;7.18;;;;;;;;;;1908843;67;20133;-53
2021/06/20 05:33:18;;;;;;;8.00;6.45;;;;;;;;;;1909226;67;20091;-61
2021/06/20 05:35:44;;;;;;;10.07;7.13;;;;;;;;;;1908662;67;20080;-61
2021/06/20 05:38:10;;;;;;;11.65;7.15;;;;;;;;;;1908492;67;20107;-62
2021/06/20 05:40:38;;;;;;;11.45;6.72;;;;;;;;;;1908766;67;20457;-62
2021/06/20 05:43:04;;;;;;;7.72;5.68;;;;;;;;;;1909226;67;20084;-63
2021/06/20 05:45:30;;;;;;;7.45;5.65;;;;;;;;;;1908713;67;20095;-64
2021/06/20 05:47:55;;;;;;;9.02;5.93;;;;;;;;;;1911377;67;20495;-63
2021/06/20 05:50:21;;;;;;;7.53;5.05;;;;;;;;;;1907886;67;20087;-63
2021/06/20 05:52:47;;;;;;;15.18;5.95;;;;;;;;;;1907758;67;20088;-63
2021/06/20 05:55:12;;;;;;;7.95;4.72;;;;;;;;;;1908720;67;20079;-62
2021/06/20 05:57:38;;;;;;;6.43;5.13;;;;;;;;;;1907713;67;20087;-63
2021/06/20 06:00:07;;;;;;;10.93;4.88;;;;;;;;;;1909008;67;20567;-63
2021/06/20 06:02:32;;;;;;;9.23;4.13;;;;;;;;;;1910266;67;20344;-62
2021/06/20 06:04:58;;;;;;;7.63;4.15;;;;;;;;;;1908674;67;20084;-62
2021/06/20 06:07:23;;;;;;;5.47;3.75;;;;;;;;;;1909074;59;20092;-62
2021/06/20 06:09:49;;;;;;;6.15;3.50;;;;;;;;;;1908471;67;20139;-63
2021/06/20 06:12:14;;;;;;;4.70;3.72;;;;;;;;;;1908903;67;20451;-63
2021/06/20 06:14:40;;;;;;;6.28;4.00;;;;;;;;;;1908556;67;20095;-62
2021/06/20 06:17:05;;;;;;;5.68;3.47;;;;;;;;;;1908304;67;20091;-63
2021/06/20 06:19:31;;;;;;;6.10;3.63;;;;;;;;;;1909239;67;20113;-63
2021/06/20 06:21:56;;;;;;;4.13;3.17;;;;;;;;;;1908922;67;20187;-63
2021/06/20 06:24:22;;;;;;;4.93;3.00;;;;;;;;;;1908050;67;20098;-63
2021/06/20 06:26:47;;;;;;;5.22;2.92;;;;;;;;;;1908562;67;20100;-63
2021/06/20 06:29:13;;;;;;;7.47;3.30;;;;;;;;;;1907059;67;20135;-63
2021/06/20 06:31:41;;;;;;;7.65;2.83;;;;;;;;;;1908190;67;20196;-63
2021/06/20 06:34:08;;;;;;;5.00;2.88;;;;;;;;;;1909910;67;20111;-62
2021/06/20 06:36:34;;;;;;;3.38;2.60;;;;;;;;;;1908045;67;20092;-61
2021/06/20 06:39:00;;;;;;;6.82;2.75;;;;;;;;;;1908788;67;20498;-62
2021/06/20 06:41:25;;;;;;;2.95;2.33;;;;;;;;;;1910020;67;20095;-64
2021/06/20 06:43:51;;;;;;;7.13;2.30;;;;;;;;;;1908731;67;20503;-63
2021/06/20 06:46:16;;;;;;;5.65;2.20;;;;;;;;;;1908106;67;20090;-62
2021/06/20 06:48:42;;;;;;;4.40;2.28;;;;;;;;;;1908747;67;20127;-62
2021/06/20 06:51:07;;;;;;;8.75;2.75;;;;;;;;;;1908445;67;20075;-61
2021/06/20 06:53:33;;;;;;;3.50;2.40;;;;;;;;;;1909314;67;20402;-62
2021/06/20 06:55:59;;;;;;;7.03;2.60;;;;;;;;;;1909346;67;20091;-60
2021/06/20 06:58:24;;;;;;;6.53;2.85;;;;;;;;;;1908794;67;20561;-61
2021/06/20 07:00:50;;;;;;;3.58;2.33;;;;;;;;;;1909451;75;20088;-62
2021/06/20 07:06:09;;;;;;;4.03;2.45;;;;;;;;;;1907160;67;20092;-71
2021/06/20 07:08:35;;;;;;;5.35;2.90;;;;;;;;;;1905125;56;20084;-72
2021/06/20 07:11:01;;;;;;;5.53;2.83;;;;;;;;;;1901728;67;20408;-72
2021/06/20 07:13:26;;;;;;;4.88;2.75;;;;;;;;;;1899259;67;20092;-73
2021/06/20 07:15:51;;;;;;;5.25;2.72;;;;;;;;;;1900778;67;20092;-73
2021/06/20 07:18:18;;;;;;;4.53;2.83;;;;;;;;;;1901383;75;20101;-72
2021/06/20 07:20:44;;;;;;;9.10;3.15;;;;;;;;;;1898550;67;20142;-73
2021/06/20 07:23:09;;;;;;;4.50;2.90;;;;;;;;;;1899585;67;20096;-72
2021/06/20 07:25:35;;;;;;;4.47;3.10;;;;;;;;;;1900523;75;20092;-72
2021/06/20 07:28:00;;;;;;;5.10;2.60;;;;;;;;;;1902126;67;20152;-73
2021/06/20 07:30:27;;;;;;;6.10;3.20;;;;;;;;;;1901708;75;20084;-72
2021/06/20 07:32:54;;;;;;;6.38;4.30;;;;;;;;;;1903510;67;20077;-72
2021/06/20 07:35:20;;;;;;;4.30;2.78;;;;;;;;;;1899661;67;20087;-73
2021/06/20 07:37:45;;;;;;;6.68;3.13;;;;;;;;;;1900959;67;20140;-72
2021/06/20 07:40:13;;;;;;;5.95;3.15;;;;;;;;;;1899436;67;20095;-72
2021/06/20 07:42:38;;;;;;;4.38;2.63;;;;;;;;;;1901024;67;20089;-76
2021/06/20 07:45:05;;;;;;;8.90;3.28;;;;;;;;;;1901884;67;20443;-76
2021/06/20 07:47:31;;;;;;;5.88;3.30;;;;;;;;;;1904836;67;20096;-76
2021/06/20 07:49:57;;;;;;;4.57;2.67;;;;;;;;;;1904350;75;20171;-76
2021/06/20 07:52:22;;;;;;;8.50;2.88;;;;;;;;;;1901547;75;20087;-75
2021/06/20 07:54:51;;;;;;;6.82;3.17;;;;;;;;;;1902805;67;20088;-76
2021/06/20 07:57:20;;;;;;;9.18;2.80;;;;;;;;;;1900835;67;20399;-75
2021/06/20 07:59:50;;;;;;;8.38;2.95;;;;;;;;;;1904079;67;20073;-76
2021/06/20 08:02:16;;;;;;;3.78;2.63;;;;;;;;;;1900582;67;20116;-75
2021/06/20 08:04:42;;;;;;;9.45;3.53;;;;;;;;;;1897678;67;20093;-76
2021/06/20 08:07:09;;;;;;;7.93;3.00;;;;;;;;;;1899992;67;20088;-76
2021/06/20 08:09:35;;;;;;;9.60;3.17;;;;;;;;;;1902578;75;20092;-75
2021/06/20 08:12:00;;;;;;;7.53;2.90;;;;;;;;;;1900336;60;20097;-76
2021/06/20 08:14:27;;;;;;;9.43;2.90;;;;;;;;;;1898629;67;20100;-75
2021/06/20 08:16:53;;;;;;;5.32;3.30;;;;;;;;;;1897795;75;20127;-76
2021/06/20 08:19:19;;;;;;;8.05;2.80;;;;;;;;;;1902443;67;20511;-75
2021/06/20 08:21:45;;;;;;;5.07;2.85;;;;;;;;;;1900584;75;20168;-76
2021/06/20 08:24:12;;;;;;;6.55;2.85;;;;;;;;;;1898866;75;20089;-74
2021/06/20 08:26:38;;;;;;;10.13;2.90;;;;;;;;;;1901078;67;20100;-75
2021/06/20 08:29:04;;;;;;;7.07;2.95;;;;;;;;;;1901027;67;20085;-75
2021/06/20 08:31:31;;;;;;;3.58;2.17;;;;;;;;;;1901771;67;20093;-75
2021/06/20 08:33:57;;;;;;;7.22;2.97;;;;;;;;;;1900952;75;20487;-75
2021/06/20 08:36:22;;;;;;;8.52;3.25;;;;;;;;;;1897075;67;20085;-76
2021/06/20 08:38:48;;;;;;;6.80;3.47;;;;;;;;;;1900849;67;20085;-75
2021/06/20 08:41:14;;;;;;;7.75;2.80;;;;;;;;;;1900052;75;20089;-75
2021/06/20 08:43:41;;;;;;;5.75;2.85;;;;;;;;;;1900805;67;20655;-76
2021/06/20 08:46:07;;;;;;;4.53;2.40;;;;;;;;;;1898530;75;20088;-75
2021/06/20 08:48:33;;;;;;;9.00;3.15;;;;;;;;;;1900120;67;20093;-75
2021/06/20 08:50:59;;;;;;;7.78;2.83;;;;;;;;;;1900708;67;20092;-75
2021/06/20 08:53:25;;;;;;;8.60;3.15;;;;;;;;;;1899990;67;20142;-75
2021/06/20 08:55:51;;;;;;;8.75;3.45;;;;;;;;;;1899830;67;20153;-76
2021/06/20 08:58:22;;;;;;;8.77;3.20;;;;;;;;;;1900855;67;20089;-77
2021/06/20 09:00:47;;;;;;;6.40;3.15;;;;;;;;;;1900917;75;20096;-76
2021/06/20 09:03:13;;;;;;;10.50;3.47;;;;;;;;;;1900477;67;20089;-75
2021/06/20 09:05:39;;;;;;;7.90;3.58;;;;;;;;;;1903255;67;20085;-76
2021/06/20 09:08:17;;;;;;;9.00;3.55;;;;;;;;;;1903285;75;20085;-76
2021/06/20 09:10:43;;;;;;;10.10;3.38;;;;;;;;;;1902559;67;20089;-76
2021/06/20 09:13:08;;;;;;;7.85;3.17;;;;;;;;;;1898447;67;20089;-75
2021/06/20 09:15:34;;;;;;;8.10;3.20;;;;;;;;;;1898093;67;20097;-74
2021/06/20 09:18:03;;;;;;;10.27;4.22;;;;;;;;;;1903191;67;20156;-76
2021/06/20 09:20:36;;;;;;;10.38;3.20;;;;;;;;;;1900060;75;20088;-76
2021/06/20 09:23:10;;;;;;;6.75;3.45;;;;;;;;;;1899803;75;20100;-75
2021/06/20 09:25:38;;;;;;;7.43;3.42;;;;;;;;;;1900320;67;20100;-76
2021/06/20 09:28:05;;;;;;;5.93;3.58;;;;;;;;;;1898254;67;20089;-75
2021/06/20 09:30:32;;;;;;;5.82;3.47;;;;;;;;;;1902010;75;20415;-77
2021/06/20 09:33:06;;;;;;;10.43;3.67;;;;;;;;;;1900184;67;20100;-77
2021/06/20 09:35:42;;;;;;;9.52;3.88;;;;;;;;;;1900350;67;20147;-76
2021/06/20 09:38:15;;;;;;;9.45;3.80;;;;;;;;;;1902488;67;20093;-76
2021/06/20 09:40:41;;;;;;;10.38;3.78;;;;;;;;;;1900946;75;20093;-76
2021/06/20 09:43:17;;;;;;;5.55;2.92;;;;;;;;;;1900652;67;20128;-76
2021/06/20 09:45:45;;;;;;;8.77;3.28;;;;;;;;;;1903912;67;20089;-76
2021/06/20 09:48:30;;;;;;;8.65;3.33;;;;;;;;;;1903055;75;20101;-76
2021/06/20 09:51:19;;;;;;;6.85;2.53;;;;;;;;;;1901533;67;20131;-76
2021/06/20 09:53:47;;;;;;;12.52;2.95;;;;;;;;;;1901952;67;20111;-76
2021/06/20 09:56:29;;;;;;;5.82;3.47;;;;;;;;;;1900291;67;20646;-75
2021/06/20 09:58:58;;;;;;;11.25;2.92;;;;;;;;;;1904059;67;20156;-76
2021/06/20 10:01:25;;;;;;;6.82;2.53;;;;;;;;;;1903729;67;20142;-77
2021/06/20 10:03:50;;;;;;;6.18;2.35;;;;;;;;;;1904016;67;20156;-76
2021/06/20 10:06:17;;;;;;;6.38;2.63;;;;;;;;;;1904922;67;20622;-76
2021/06/20 10:08:44;;;;;;;9.93;2.47;;;;;;;;;;1903349;67;20089;-74
2021/06/20 10:11:10;;;;;;;5.88;2.53;;;;;;;;;;1903921;67;20084;-76
2021/06/20 10:13:37;;;;;;;4.90;2.28;;;;;;;;;;1904142;67;20088;-76
2021/06/20 10:16:16;;;;;;;3.80;2.25;;;;;;;;;;1901008;67;20104;-79
2021/06/20 10:18:48;;;;;;;8.77;3.05;;;;;;;;;;1904413;67;20568;-78
2021/06/20 10:21:14;;;;;;;6.78;2.63;;;;;;;;;;1905575;67;20077;-78
2021/06/20 10:23:39;;;;;;;7.13;2.45;;;;;;;;;;1900690;67;20088;-75
2021/06/20 10:26:08;;;;;;;7.93;2.95;;;;;;;;;;1904353;67;20402;-75
2021/06/20 10:28:34;;;;;;;8.55;2.95;;;;;;;;;;1898692;67;20085;-76
2021/06/20 10:31:08;;;;;;;5.93;2.75;;;;;;;;;;1904141;67;20140;-76
2021/06/20 10:33:35;;;;;;;9.70;2.80;;;;;;;;;;1903106;75;20089;-75
2021/06/20 10:36:03;;;;;;;10.10;2.90;;;;;;;;;;1903187;67;20108;-76
2021/06/20 10:38:37;;;;;;;11.75;3.50;;;;;;;;;;1904417;67;20088;-77
2021/06/20 10:41:03;;;;;;;10.25;2.88;;;;;;;;;;1901066;75;20093;-71
2021/06/20 10:43:29;;;;;;;7.18;3.40;;;;;;;;;;1904155;67;20758;-77
2021/06/20 10:45:54;;;;;;;8.35;2.67;;;;;;;;;;1903186;67;20085;-76
2021/06/20 10:48:37;;;;;;;16.38;3.17;;;;;;;;;;1904448;67;20092;-75
2021/06/20 10:51:03;;;;;;;9.50;2.95;;;;;;;;;;1902941;67;20096;-76
2021/06/20 10:53:40;;;;;;;8.80;2.67;;;;;;;;;;1901506;67;20154;-75
2021/06/20 10:56:06;;;;;;;6.45;2.20;;;;;;;;;;1904076;75;20088;-76
2021/06/20 10:58:34;;;;;;;7.75;2.50;;;;;;;;;;1899136;67;20167;-76
2021/06/20 11:01:11;;;;;;;7.32;2.60;;;;;;;;;;1899108;75;20095;-76
2021/06/20 11:03:38;;;;;;;5.10;2.30;;;;;;;;;;1901014;67;20124;-76
2021/06/20 11:06:10;;;;;;;8.57;2.38;;;;;;;;;;1900349;67;20130;-76
2021/06/20 11:08:37;;;;;;;;;;;;;;;;;;1898670;67;20097;-75
2021/06/20 11:11:09;;;;;;;5.28;2.40;;;;;;;;;;1900369;67;19960;-77
2021/06/20 11:13:36;;;;;;;6.25;1.88;;;;;;;;;;1901575;67;20093;-76
2021/06/20 11:16:04;;;;;;;8.07;2.60;;;;;;;;;;1901424;67;20151;-75
2021/06/20 11:18:30;;;;;;;6.25;2.35;;;;;;;;;;1901346;75;20456;-76
2021/06/20 11:20:56;;;;;;;9.07;2.58;;;;;;;;;;1898501;67;20082;-76
2021/06/20 11:23:22;;;;;;;11.30;2.60;;;;;;;;;;1899008;67;20101;-77
2021/06/20 11:25:53;;;;;;;10.32;2.65;;;;;;;;;;1898598;67;20082;-76
2021/06/20 11:28:19;;;;;;;8.30;2.13;;;;;;;;;;1897287;67;20094;-76
2021/06/20 11:30:45;;;;;;;8.15;2.67;;;;;;;;;;1897438;67;20128;-76
2021/06/20 11:33:26;;;;;;;5.32;2.00;;;;;;;;;;1898440;67;20149;-76
2021/06/20 11:35:52;;;;;;;5.22;2.22;;;;;;;;;;1897949;67;20113;-75
2021/06/20 11:38:36;;;;;;;4.85;1.98;;;;;;;;;;1896213;67;20090;-78
2021/06/20 11:41:26;;;;;;;5.00;2.20;;;;;;;;;;1897946;75;20534;-77
2021/06/20 11:43:57;;;;;;;5.18;2.20;;;;;;;;;;1899806;67;20097;-76
2021/06/20 11:46:25;;;;;;;7.60;3.05;;;;;;;;;;1899976;67;20089;-76
2021/06/20 11:49:01;;;;;;;4.38;1.73;;;;;;;;;;1898576;67;20805;-76
2021/06/20 11:51:37;;;;;;;7.50;2.05;;;;;;;;;;1897127;67;20499;-76
2021/06/20 11:54:13;;;;;;;7.57;3.10;;;;;;;;;;1897360;67;20093;-76
2021/06/20 11:56:44;;;;;;;6.85;2.40;;;;;;;;;;1897610;67;20530;-75
2021/06/20 11:59:10;;;;;;;8.88;2.22;;;;;;;;;;1898125;67;20082;-75
2021/06/20 12:01:47;;;;;;;4.25;2.05;;;;;;;;;;1897473;67;20476;-75
2021/06/20 12:04:20;;;;;;;5.25;2.15;;;;;;;;;;1900619;67;20086;-75
2021/06/20 12:06:47;;;;;;;6.00;2.30;;;;;;;;;;1904043;67;20080;-75
2021/06/20 12:09:13;;;;;;;9.48;3.05;;;;;;;;;;1897835;67;20091;-76
2021/06/20 12:11:40;;;;;;;8.60;2.38;;;;;;;;;;1900235;67;20610;-76
2021/06/20 12:14:07;;;;;;;7.07;2.35;;;;;;;;;;1902026;67;20377;-79
2021/06/20 12:16:45;;;;;;;8.88;2.30;;;;;;;;;;1898863;67;20111;-76
2021/06/20 12:19:15;;;;;;;8.82;2.47;;;;;;;;;;1903117;67;20093;-75
2021/06/20 12:21:41;;;;;;;8.55;2.35;;;;;;;;;;1903409;59;20455;-77
2021/06/20 12:24:07;;;;;;;6.90;2.70;;;;;;;;;;1900757;67;20406;-75
2021/06/20 12:26:33;;;;;;;7.95;2.72;;;;;;;;;;1896952;67;20104;-76
2021/06/20 12:29:04;;;;;;;9.43;2.97;;;;;;;;;;1899852;67;20088;-76
2021/06/20 12:31:29;;;;;;;10.00;3.55;;;;;;;;;;1906086;67;20087;-77
2021/06/20 12:34:09;;;;;;;10.18;2.60;;;;;;;;;;1900424;67;20136;-77
2021/06/20 12:36:35;;;;;;;4.78;2.50;;;;;;;;;;1904792;67;20099;-78
2021/06/20 12:39:03;;;;;;;4.40;2.53;;;;;;;;;;1903848;59;20151;-77
2021/06/20 12:41:40;;;;;;;;;;;;;;;;;;;;;
2021/06/20 12:44:08;;;;;;;8.45;2.90;;;;;;;;;;1904985;67;20126;-77
2021/06/20 12:46:39;;;;;;;5.70;2.38;;;;;;;;;;1902566;67;20142;-76
2021/06/20 12:49:06;;;;;;;9.93;2.75;;;;;;;;;;1900828;67;20113;-77
2021/06/20 12:51:40;;;;;;;10.10;2.50;;;;;;;;;;1904816;67;20163;-77
2021/06/20 12:54:09;;;;;;;5.47;2.65;;;;;;;;;;1901798;59;20091;-76
2021/06/20 12:56:36;;;;;;;8.50;2.60;;;;;;;;;;1903274;67;20151;-76
2021/06/20 12:59:04;;;;;;;8.55;2.50;;;;;;;;;;1899839;67;20104;-75
2021/06/20 13:01:34;;;;;;;9.73;2.50;;;;;;;;;;1903511;67;20112;-78
2021/06/20 13:04:11;;;;;;;9.38;2.65;;;;;;;;;;1904836;67;20530;-76
2021/06/20 13:06:37;;;;;;;7.10;2.10;;;;;;;;;;1902697;67;20196;-76
2021/06/20 13:09:05;;;;;;;7.25;2.42;;;;;;;;;;1901830;67;20089;-76
2021/06/20 13:11:31;;;;;;;6.75;2.30;;;;;;;;;;1903116;67;20084;-74
2021/06/20 13:14:09;;;;;;;6.60;2.80;;;;;;;;;;1903213;67;20096;-75
2021/06/20 13:16:34;;;;;;;6.32;2.50;;;;;;;;;;1903798;75;20093;-76
2021/06/20 13:19:00;;;;;;;6.20;2.58;;;;;;;;;;1896484;67;20093;-74
2021/06/20 13:21:26;;;;;;;8.65;2.80;;;;;;;;;;1899672;67;20499;-75
2021/06/20 13:23:52;;;;;;;4.68;2.13;;;;;;;;;;1899054;67;20120;-78
2021/06/20 13:26:18;;;;;;;5.53;2.45;;;;;;;;;;1902465;67;20100;-75
2021/06/20 13:28:44;;;;;;;7.10;2.60;;;;;;;;;;1899453;67;20085;-75
2021/06/20 13:31:09;;;;;;;9.63;2.53;;;;;;;;;;1900415;67;20089;-77
2021/06/20 13:33:35;;;;;;;6.03;2.85;;;;;;;;;;1896622;67;20084;-75
2021/06/20 13:36:01;;;;;;;5.75;2.55;;;;;;;;;;1901517;75;20108;-76
2021/06/20 13:38:26;;;;;;;4.65;2.45;;;;;;;;;;1899100;67;20115;-76
2021/06/20 13:40:52;;;;;;;6.95;2.78;;;;;;;;;;1899557;67;20619;-75
2021/06/20 13:43:34;;;;;;;5.45;2.92;;;;;;;;;;1900671;67;20138;-74
2021/06/20 13:46:00;;;;;;;;;;;;;;;;;;1898563;67;20084;-76
2021/06/20 13:48:25;;;;;;;8.35;2.83;;;;;;;;;;1901257;75;19975;-77
2021/06/20 13:50:51;;;;;;;10.88;3.38;;;;;;;;;;1900897;75;20125;-75
2021/06/20 13:53:16;;;;;;;11.23;3.20;;;;;;;;;;1904489;67;20084;-75
2021/06/20 13:55:42;;;;;;;6.90;3.30;;;;;;;;;;1898237;67;20111;-75
2021/06/20 13:58:07;;;;;;;8.23;2.80;;;;;;;;;;1900815;67;20088;-76
2021/06/20 14:00:33;;;;;;;8.38;3.38;;;;;;;;;;1899374;67;20566;-76
2021/06/20 14:02:59;;;;;;;5.13;3.05;;;;;;;;;;1900690;59;20664;-77
2021/06/20 14:05:28;;;;;;;6.82;3.08;;;;;;;;;;1899260;67;20100;-77
2021/06/20 14:07:54;;;;;;;3.88;2.67;;;;;;;;;;1900201;67;20124;-77
2021/06/20 14:10:20;;;;;;;10.05;3.17;;;;;;;;;;1896000;67;20464;-76
2021/06/20 14:12:46;;;;;;;7.10;3.00;;;;;;;;;;1902556;67;20092;-76
2021/06/20 14:15:12;;;;;;;6.95;3.03;;;;;;;;;;1901254;67;20089;-76
2021/06/20 14:17:38;;;;;;;6.13;2.90;;;;;;;;;;1900239;67;20168;-75
2021/06/20 14:20:05;;;;;;;7.32;3.25;;;;;;;;;;1898293;67;20100;-76
2021/06/20 14:22:31;;;;;;;8.25;3.10;;;;;;;;;;1900957;67;20101;-76
2021/06/20 14:25:05;;;;;;;5.25;2.72;;;;;;;;;;1900868;67;20084;-76
2021/06/20 14:27:31;;;;;;;4.70;2.28;;;;;;;;;;1899014;67;20093;-75
2021/06/20 14:29:56;;;;;;;4.50;2.53;;;;;;;;;;1898284;67;20127;-76
2021/06/20 14:32:22;;;;;;;5.70;2.53;;;;;;;;;;1900511;67;20096;-76
2021/06/20 14:34:52;;;;;;;4.93;2.80;;;;;;;;;;1900938;67;20124;-75
2021/06/20 14:37:20;;;;;;;6.10;2.38;;;;;;;;;;1901491;67;20092;-75
2021/06/20 14:39:46;;;;;;;3.67;2.10;;;;;;;;;;1901153;75;20095;-76
2021/06/20 14:42:12;;;;;;;4.43;2.50;;;;;;;;;;1901601;67;20163;-76
2021/06/20 14:44:38;;;;;;;12.55;2.75;;;;;;;;;;1900031;67;20107;-76
2021/06/20 14:47:04;;;;;;;5.13;2.35;;;;;;;;;;1895558;67;20554;-76